Time;durP1;ratioP1;P1;durP2;ratioP2;P2;SDS_P1;SDS_P2;PMS_P1;PMS_P2;Temp;Humidity;BMP_temperature;BMP_pressure;BME280_temperature;BME280_humidity;BME280_pressure;Samples;Min_cycle;Max_cycle;Signal;HPM_P1;HPM_P2
2021/07/18 00:01:05;;;;;;;21.20;15.60;;;;;;;21.29;71.71;97103.53;5091550;28;20873;-70
2021/07/18 00:03:30;;;;;;;22.53;15.73;;;;;;;21.16;72.25;97101.03;5090502;28;20204;-73
2021/07/18 00:05:56;;;;;;;22.50;15.13;;;;;;;21.06;72.50;97106.03;5091582;28;20540;-72
2021/07/18 00:08:21;;;;;;;22.77;14.93;;;;;;;21.15;72.00;97099.41;5087194;28;20558;-71
2021/07/18 00:10:48;;;;;;;26.77;15.47;;;;;;;21.10;72.06;97105.41;5089865;28;20189;-71
2021/07/18 00:13:14;;;;;;;20.20;15.60;;;;;;;21.20;71.11;97102.19;5091097;28;20192;-71
2021/07/18 00:15:40;;;;;;;21.67;15.33;;;;;;;20.68;73.07;97110.50;5091159;28;20554;-70
2021/07/18 00:18:06;;;;;;;25.70;15.20;;;;;;;20.84;72.52;97104.66;5088464;28;20483;-71
2021/07/18 00:20:31;;;;;;;24.47;14.90;;;;;;;20.89;72.54;97105.81;5092296;28;20284;-72
2021/07/18 00:22:57;;;;;;;19.30;14.83;;;;;;;20.71;72.91;97104.75;5091479;28;20186;-70
2021/07/18 00:25:24;;;;;;;22.30;15.17;;;;;;;20.63;73.40;97105.84;5090375;28;20242;-72
2021/07/18 00:27:49;;;;;;;17.40;14.87;;;;;;;20.79;72.71;97106.34;5090195;28;20235;-70
2021/07/18 00:30:15;;;;;;;19.93;13.83;;;;;;;20.82;72.25;97105.88;5073082;28;20435;-70
2021/07/18 00:32:42;;;;;;;23.23;14.60;;;;;;;20.70;72.98;97111.09;5091103;28;20185;-70
2021/07/18 00:35:08;;;;;;;19.43;13.63;;;;;;;20.79;72.29;97106.34;5073145;28;20574;-71
2021/07/18 00:37:34;;;;;;;18.43;14.57;;;;;;;20.67;72.62;97112.34;5089892;28;21097;-72
2021/07/18 00:39:59;;;;;;;20.87;14.70;;;;;;;20.80;72.00;97107.94;5087311;28;20503;-68
2021/07/18 00:42:25;;;;;;;17.60;13.67;;;;;;;20.57;72.71;97106.69;5091273;28;20644;-70
2021/07/18 00:44:51;;;;;;;21.23;14.20;;;;;;;20.67;72.07;97099.03;5091405;28;20206;-71
2021/07/18 00:47:16;;;;;;;20.70;13.87;;;;;;;20.78;71.33;97088.72;5090544;28;20429;-70
2021/07/18 00:49:42;;;;;;;21.00;13.90;;;;;;;20.72;71.38;97091.19;5091398;28;20189;-69
2021/07/18 00:52:08;;;;;;;17.57;12.57;;;;;;;20.74;71.02;97090.16;5089873;28;20629;-71
2021/07/18 00:54:35;;;;;;;19.70;13.07;;;;;;;20.68;71.41;97099.84;5093396;28;20660;-71
2021/07/18 00:57:01;;;;;;;18.73;12.67;;;;;;;20.71;71.12;97097.56;5075330;28;20202;-73
2021/07/18 00:59:27;;;;;;;18.10;12.63;;;;;;;20.49;71.27;97096.34;5095007;28;20424;-71
2021/07/18 01:01:53;;;;;;;20.07;11.67;;;;;;;20.48;71.30;97102.69;5093607;28;20465;-71
2021/07/18 01:04:19;;;;;;;21.90;12.17;;;;;;;20.45;71.31;97100.47;5076554;28;20424;-70
2021/07/18 01:06:45;;;;;;;17.03;12.50;;;;;;;20.35;71.22;97095.66;5092924;28;20206;-71
2021/07/18 01:09:11;;;;;;;23.10;12.40;;;;;;;20.48;70.87;97092.03;5089938;28;20555;-71
2021/07/18 01:11:36;;;;;;;20.43;12.10;;;;;;;20.50;70.41;97104.09;5094962;28;20209;-71
2021/07/18 01:14:02;;;;;;;15.10;12.27;;;;;;;20.27;70.88;97094.06;5093444;28;20225;-69
2021/07/18 01:16:27;;;;;;;18.03;11.90;;;;;;;20.13;71.55;97095.22;5092977;28;20198;-69
2021/07/18 01:18:53;;;;;;;18.77;12.00;;;;;;;20.18;71.23;97090.03;5094274;28;20207;-70
2021/07/18 01:21:26;;;;;;;20.03;11.70;;;;;;;20.19;70.59;97089.00;5094196;28;20181;-71
2021/07/18 01:23:53;;;;;;;15.80;11.30;;;;;;;20.11;70.45;97090.09;5092843;28;20563;-70
2021/07/18 01:26:21;;;;;;;13.90;11.33;;;;;;;19.92;71.16;97087.38;5094103;28;20440;-71
2021/07/18 01:28:47;;;;;;;12.73;11.40;;;;;;;19.86;71.15;97079.41;5093975;28;20428;-69
2021/07/18 01:31:13;;;;;;;13.20;10.43;;;;;;;19.70;71.19;97078.88;5094951;28;20424;-70
2021/07/18 01:33:38;;;;;;;11.17;9.40;;;;;;;19.87;69.49;97076.56;5094966;28;20193;-72
2021/07/18 01:36:04;;;;;;;14.10;9.87;;;;;;;19.69;69.66;97077.25;5094358;28;20212;-70
2021/07/18 01:38:30;;;;;;;11.77;8.30;;;;;;;19.74;68.58;97079.25;5090762;28;20276;-71
2021/07/18 01:40:56;;;;;;;10.30;8.03;;;;;;;19.63;68.34;97078.13;5094672;28;20274;-71
2021/07/18 01:43:21;;;;;;;12.47;7.70;;;;;;;19.65;68.07;97082.19;5094648;28;20470;-72
2021/07/18 01:45:48;;;;;;;11.60;7.73;;;;;;;19.59;67.62;97076.91;5095750;28;20206;-71
2021/07/18 01:48:13;;;;;;;15.27;7.23;;;;;;;19.77;66.80;97084.16;5093386;28;20323;-70
2021/07/18 01:50:39;;;;;;;12.10;7.63;;;;;;;19.84;66.38;97079.63;5094709;28;20424;-70
2021/07/18 01:53:05;;;;;;;10.63;7.47;;;;;;;19.72;66.71;97081.34;5092237;28;20243;-70
2021/07/18 01:55:31;;;;;;;11.60;7.70;;;;;;;19.75;66.43;97084.38;5091878;28;20209;-71
2021/07/18 01:57:57;;;;;;;14.57;7.57;;;;;;;19.68;66.39;97075.63;5093194;28;20434;-68
2021/07/18 02:00:23;;;;;;;11.57;7.13;;;;;;;19.57;66.14;97076.28;5093566;28;20423;-72
2021/07/18 02:02:51;;;;;;;13.33;8.33;;;;;;;19.59;66.47;97082.22;5092277;28;20190;-70
2021/07/18 02:05:17;;;;;;;9.30;7.03;;;;;;;19.44;67.07;97079.84;5092013;28;20206;-71
2021/07/18 02:07:47;;;;;;;11.70;7.73;;;;;;;19.55;66.57;97078.34;5090470;28;20412;-71
2021/07/18 02:10:14;;;;;;;9.27;7.20;;;;;;;19.69;66.01;97074.59;5091380;28;20427;-69
2021/07/18 02:12:39;;;;;;;11.90;7.33;;;;;;;19.88;65.37;97082.69;5091933;28;20414;-72
2021/07/18 02:15:08;;;;;;;9.20;7.03;;;;;;;19.94;64.96;97081.81;5092492;28;20455;-70
2021/07/18 02:17:35;;;;;;;13.93;7.93;;;;;;;19.85;65.12;97075.13;5103702;28;20189;-70
2021/07/18 02:20:00;;;;;;;18.67;7.73;;;;;;;19.72;65.66;97090.13;5092810;28;20439;-70
2021/07/18 02:22:42;;;;;;;11.30;8.00;;;;;;;19.40;66.97;97075.97;5092980;28;20416;-71
2021/07/18 02:25:08;;;;;;;14.70;8.03;;;;;;;19.26;67.54;97083.22;5091272;28;20232;-71
2021/07/18 02:27:33;;;;;;;10.47;7.20;;;;;;;19.21;67.69;97078.53;5092711;28;20451;-70
2021/07/18 02:29:59;;;;;;;9.53;7.07;;;;;;;19.26;67.15;97080.56;5092355;28;20193;-70
2021/07/18 02:32:24;;;;;;;7.97;6.83;;;;;;;19.16;66.88;97078.34;5091498;28;20227;-73
2021/07/18 02:34:50;;;;;;;9.27;6.50;;;;;;;19.24;65.74;97071.97;5092936;28;20201;-70
2021/07/18 02:37:15;;;;;;;10.97;5.90;;;;;;;19.09;65.35;97088.97;5094187;28;20731;-71
2021/07/18 02:39:41;;;;;;;11.80;6.00;;;;;;;18.93;65.57;97084.09;5088702;28;20342;-70
2021/07/18 02:42:08;;;;;;;9.60;5.57;;;;;;;18.87;65.68;97083.91;5092242;28;20254;-70
2021/07/18 02:44:34;;;;;;;7.63;5.60;;;;;;;18.90;65.61;97085.34;5090019;28;20189;-71
2021/07/18 02:46:59;;;;;;;9.93;6.03;;;;;;;19.00;65.29;97088.38;5091946;28;20741;-70
2021/07/18 02:49:25;;;;;;;7.20;5.43;;;;;;;18.91;65.46;97094.09;5092081;28;20250;-70
2021/07/18 02:51:50;;;;;;;9.13;5.30;;;;;;;18.82;65.92;97086.38;5089930;28;20181;-70
2021/07/18 02:54:16;;;;;;;9.27;6.10;;;;;;;18.66;66.67;97084.97;5091612;28;20181;-70
2021/07/18 02:56:42;;;;;;;11.40;6.40;;;;;;;18.74;66.74;97086.59;5092424;28;20209;-71
2021/07/18 02:59:07;;;;;;;14.43;6.63;;;;;;;18.79;67.09;97089.44;5092262;28;20185;-70
2021/07/18 03:01:33;;;;;;;7.80;6.77;;;;;;;18.68;67.68;97095.38;5092444;28;20173;-72
2021/07/18 03:03:58;;;;;;;8.73;6.87;;;;;;;18.62;67.99;97083.75;5090041;28;20182;-73
2021/07/18 03:06:24;;;;;;;13.00;7.60;;;;;;;18.65;68.45;97093.16;5091158;28;20289;-70
2021/07/18 03:08:49;;;;;;;9.97;7.13;;;;;;;18.50;69.44;97093.38;5086461;28;20178;-70
2021/07/18 03:11:15;;;;;;;14.13;7.97;;;;;;;18.42;69.58;97089.06;5091352;28;20290;-71
2021/07/18 03:13:40;;;;;;;8.47;7.13;;;;;;;18.25;70.98;97089.50;5090521;28;20581;-73
2021/07/18 03:16:06;;;;;;;12.93;8.17;;;;;;;18.20;71.26;97094.59;5089790;28;20327;-70
2021/07/18 03:18:32;;;;;;;11.10;8.00;;;;;;;18.24;71.23;97093.19;5090030;28;20545;-69
2021/07/18 03:20:57;;;;;;;11.47;7.53;;;;;;;18.41;70.70;97088.28;5091803;28;20182;-70
2021/07/18 03:23:23;;;;;;;19.60;8.37;;;;;;;18.34;71.12;97092.75;5091132;28;20182;-72
2021/07/18 03:25:48;;;;;;;11.83;8.23;;;;;;;18.20;71.62;97094.59;5090526;28;20213;-71
2021/07/18 03:28:14;;;;;;;12.90;8.83;;;;;;;17.93;72.56;97094.53;5081272;28;20185;-72
2021/07/18 03:30:40;;;;;;;9.33;8.37;;;;;;;18.07;71.99;97092.78;5090468;28;20199;-73
2021/07/18 03:33:05;;;;;;;12.13;8.23;;;;;;;17.90;72.18;97094.94;5091406;28;20188;-69
2021/07/18 03:35:31;;;;;;;13.10;8.30;;;;;;;17.91;72.14;97099.22;5090298;28;20206;-71
2021/07/18 03:37:56;;;;;;;14.37;8.50;;;;;;;18.01;71.65;97100.72;5091357;28;20204;-71
2021/07/18 03:40:22;;;;;;;13.47;7.83;;;;;;;17.86;72.03;97099.03;5091718;28;20185;-69
2021/07/18 03:42:48;;;;;;;11.17;7.90;;;;;;;17.83;71.28;97093.31;5088969;28;20181;-71
2021/07/18 03:45:14;;;;;;;13.23;7.57;;;;;;;18.01;70.77;97090.13;5090673;28;20209;-70
2021/07/18 03:47:40;;;;;;;11.27;6.93;;;;;;;17.84;70.98;97090.47;5089945;28;20215;-71
2021/07/18 03:50:06;;;;;;;12.30;6.73;;;;;;;17.80;70.62;97086.56;5094126;28;20427;-72
2021/07/18 03:52:31;;;;;;;9.47;7.00;;;;;;;17.92;70.18;97094.75;5093669;28;20765;-70
2021/07/18 03:54:57;;;;;;;10.27;7.73;;;;;;;18.15;69.04;97093.56;5090149;28;20444;-72
2021/07/18 03:57:23;;;;;;;13.07;6.50;;;;;;;18.02;68.88;97099.69;5091524;28;20205;-70
2021/07/18 03:59:50;;;;;;;13.47;7.10;;;;;;;18.35;67.72;97097.03;5089656;28;20193;-70
2021/07/18 04:02:16;;;;;;;12.13;6.40;;;;;;;18.55;66.93;97102.34;5092438;28;20181;-71
2021/07/18 04:04:42;;;;;;;10.10;6.50;;;;;;;18.55;66.70;97097.03;5093384;28;20430;-70
2021/07/18 04:07:07;;;;;;;8.30;6.10;;;;;;;18.55;66.80;97088.25;5090381;28;20181;-69
2021/07/18 04:09:33;;;;;;;7.20;6.20;;;;;;;18.64;66.65;97096.84;5090850;28;20184;-71
2021/07/18 04:11:58;;;;;;;6.97;6.27;;;;;;;18.36;67.45;97095.22;5091480;28;20264;-72
2021/07/18 04:14:24;;;;;;;13.90;6.70;;;;;;;18.20;68.21;97102.56;5089670;28;20182;-70
2021/07/18 04:16:49;;;;;;;15.47;6.80;;;;;;;17.92;69.92;97100.06;5091551;28;20300;-68
2021/07/18 04:19:15;;;;;;;9.77;7.53;;;;;;;18.08;69.64;97109.50;5090411;28;20249;-69
2021/07/18 04:21:41;;;;;;;12.93;7.47;;;;;;;18.03;69.70;97107.44;5098987;28;20185;-71
2021/07/18 04:24:06;;;;;;;15.27;7.37;;;;;;;18.13;69.25;97109.72;5092462;28;20186;-72
2021/07/18 04:26:32;;;;;;;10.20;6.97;;;;;;;17.92;69.69;97110.66;5091861;28;20251;-72
2021/07/18 04:28:57;;;;;;;9.60;6.30;;;;;;;18.29;68.25;97113.78;5095585;28;20181;-71
2021/07/18 04:31:23;;;;;;;10.07;7.23;;;;;;;18.34;68.03;97111.31;5097452;28;20257;-72
2021/07/18 04:33:50;;;;;;;11.10;7.00;;;;;;;18.32;67.93;97110.72;5096316;28;20190;-70
2021/07/18 04:36:17;;;;;;;12.33;6.80;;;;;;;18.50;67.21;97117.25;5094853;28;20615;-70
2021/07/18 04:38:42;;;;;;;11.40;6.30;;;;;;;18.73;66.36;97108.84;5093404;28;20447;-72
2021/07/18 04:41:08;;;;;;;9.43;6.47;;;;;;;18.84;66.18;97116.19;5094311;28;20437;-70
2021/07/18 04:43:34;;;;;;;9.20;6.53;;;;;;;18.99;65.71;97104.53;5094413;28;20192;-73
2021/07/18 04:46:00;;;;;;;9.13;5.90;;;;;;;18.99;64.78;97115.16;5092769;28;20616;-73
2021/07/18 04:48:26;;;;;;;7.13;5.67;;;;;;;18.86;65.20;97114.16;5072662;28;20491;-71
2021/07/18 04:50:51;;;;;;;7.20;5.53;;;;;;;18.87;65.10;97118.44;5088658;28;20378;-69
2021/07/18 04:53:17;;;;;;;6.40;5.63;;;;;;;19.02;64.65;97114.75;5093867;28;20185;-69
2021/07/18 04:55:42;;;;;;;6.00;5.33;;;;;;;18.95;64.51;97116.59;5094200;28;20210;-71
2021/07/18 04:58:08;;;;;;;11.80;5.53;;;;;;;18.85;64.64;97117.81;5093043;28;20212;-68
2021/07/18 05:00:34;;;;;;;9.13;5.43;;;;;;;18.53;65.58;97119.50;5093079;28;20227;-69
2021/07/18 05:02:59;;;;;;;13.03;5.63;;;;;;;18.79;64.63;97118.63;5094151;28;20268;-69
2021/07/18 05:05:25;;;;;;;8.03;5.33;;;;;;;19.06;63.85;97128.44;5093118;28;20201;-72
2021/07/18 05:07:55;;;;;;;7.73;4.37;;;;;;;19.26;63.03;97126.50;5093579;28;20828;-70
2021/07/18 05:10:22;;;;;;;11.27;5.00;;;;;;;19.31;62.83;97124.06;5092755;28;20186;-70
2021/07/18 05:12:49;;;;;;;6.10;4.30;;;;;;;19.47;62.45;97122.75;5092711;28;20415;-70
2021/07/18 05:15:15;;;;;;;7.23;4.80;;;;;;;19.65;62.09;97121.25;5093150;28;20462;-69
2021/07/18 05:17:41;;;;;;;15.00;4.90;;;;;;;19.69;61.58;97118.97;5094013;28;20444;-70
2021/07/18 05:20:07;;;;;;;6.80;4.50;;;;;;;19.60;60.90;97135.16;5092240;28;20192;-69
2021/07/18 05:22:34;;;;;;;9.07;4.60;;;;;;;19.67;60.79;97132.47;5093740;28;20678;-70
2021/07/18 05:25:00;;;;;;;9.50;3.53;;;;;;;19.52;59.73;97123.97;5093097;28;20440;-71
2021/07/18 05:27:26;;;;;;;7.00;3.30;;;;;;;19.90;58.63;97128.50;5083530;28;20941;-74
2021/07/18 05:29:52;;;;;;;5.50;3.63;;;;;;;20.23;57.94;97127.47;5089118;28;20934;-71
2021/07/18 05:32:18;;;;;;;5.83;3.33;;;;;;;20.10;56.94;97121.19;5093474;28;20481;-71
2021/07/18 05:34:43;;;;;;;2.90;2.50;;;;;;;19.82;56.89;97124.22;5093736;28;20193;-70
2021/07/18 05:37:09;;;;;;;4.83;3.00;;;;;;;19.70;56.80;97121.41;5090181;28;20248;-70
2021/07/18 05:39:34;;;;;;;3.87;2.80;;;;;;;19.89;56.86;97118.91;5092210;28;20196;-70
2021/07/18 05:42:00;;;;;;;4.83;2.70;;;;;;;20.33;56.04;97119.00;5093647;28;20185;-72
2021/07/18 05:44:26;;;;;;;4.23;2.30;;;;;;;20.17;55.74;97120.31;5083612;28;20189;-71
2021/07/18 05:46:52;;;;;;;4.80;2.67;;;;;;;19.77;56.65;97116.91;5093794;28;20297;-71
2021/07/18 05:49:18;;;;;;;5.70;2.63;;;;;;;19.68;56.88;97120.81;5093433;28;20420;-68
2021/07/18 05:51:44;;;;;;;4.80;2.73;;;;;;;19.82;56.44;97128.72;5093460;28;20561;-70
2021/07/18 05:54:10;;;;;;;3.80;2.77;;;;;;;19.44;56.89;97133.00;5092987;28;20185;-70
2021/07/18 05:56:35;;;;;;;5.30;2.40;;;;;;;20.14;55.48;97128.75;5092468;28;20206;-71
2021/07/18 05:59:01;;;;;;;2.63;2.43;;;;;;;20.15;55.19;97130.38;5092854;28;20207;-71
2021/07/18 06:01:26;;;;;;;6.60;2.50;;;;;;;19.84;55.67;97126.66;5093225;28;20184;-71
2021/07/18 06:03:52;;;;;;;5.20;2.30;;;;;;;20.00;55.04;97131.50;5091703;28;20264;-71
2021/07/18 06:06:17;;;;;;;3.23;2.20;;;;;;;19.99;55.19;97124.56;5092640;28;20194;-69
2021/07/18 06:08:43;;;;;;;3.90;2.57;;;;;;;20.34;54.50;97132.06;5092008;28;20323;-69
2021/07/18 06:11:09;;;;;;;5.07;2.30;;;;;;;20.62;53.86;97138.81;5092614;28;20189;-70
2021/07/18 06:13:34;;;;;;;3.83;2.60;;;;;;;20.92;53.08;97138.13;5092443;28;20193;-71
2021/07/18 06:16:00;;;;;;;3.87;2.50;;;;;;;20.94;53.46;97138.75;5091510;28;20221;-71
2021/07/18 06:18:25;;;;;;;4.87;2.90;;;;;;;20.92;52.99;97137.34;5084115;28;20310;-68
2021/07/18 06:20:51;;;;;;;5.00;2.73;;;;;;;21.04;52.73;97137.44;5092350;28;20185;-72
2021/07/18 06:23:17;;;;;;;4.90;2.40;;;;;;;21.07;52.55;97151.13;5091111;28;20186;-71
2021/07/18 06:25:42;;;;;;;4.27;2.60;;;;;;;21.61;51.57;97138.00;5092417;28;20258;-70
2021/07/18 06:28:08;;;;;;;10.50;2.47;;;;;;;20.92;53.60;97148.00;5092145;28;20220;-71
2021/07/18 06:30:33;;;;;;;9.53;2.30;;;;;;;20.97;53.46;97140.97;5099337;28;20225;-72
2021/07/18 06:32:59;;;;;;;2.80;2.30;;;;;;;20.95;53.57;97155.56;5096198;28;20197;-70
2021/07/18 06:35:25;;;;;;;2.70;2.20;;;;;;;20.85;53.73;97154.22;5090708;28;20665;-71
2021/07/18 06:37:50;;;;;;;5.80;2.60;;;;;;;20.51;54.99;97153.63;5091042;28;20276;-70
2021/07/18 06:40:17;;;;;;;5.77;2.60;;;;;;;20.90;53.89;97156.22;5092444;28;20194;-68
2021/07/18 06:42:43;;;;;;;2.63;2.00;;;;;;;21.58;52.38;97154.44;5091134;28;20185;-71
2021/07/18 06:45:09;;;;;;;7.10;2.67;;;;;;;21.63;51.89;97157.28;5092359;28;20444;-71
2021/07/18 06:47:35;;;;;;;7.00;2.43;;;;;;;21.89;50.99;97141.97;5092292;28;20362;-70
2021/07/18 06:50:00;;;;;;;7.00;2.10;;;;;;;21.52;51.88;97146.50;5092132;28;20946;-72
2021/07/18 06:52:26;;;;;;;4.57;2.40;;;;;;;21.87;51.15;97143.19;5090587;28;20174;-70
2021/07/18 06:54:52;;;;;;;5.67;2.97;;;;;;;21.89;51.51;97146.47;5091758;28;20211;-69
2021/07/18 06:57:19;;;;;;;3.80;2.70;;;;;;;22.18;50.40;97154.69;5090188;28;20198;-70
2021/07/18 06:59:46;;;;;;;5.10;2.40;;;;;;;22.70;49.29;97152.25;5090917;28;20466;-68
2021/07/18 07:02:12;;;;;;;5.13;2.60;;;;;;;22.80;48.98;97151.69;5092587;28;20420;-70
2021/07/18 07:04:37;;;;;;;7.80;2.60;;;;;;;21.61;51.96;97140.69;5090307;28;20428;-73
2021/07/18 07:07:03;;;;;;;6.80;2.80;;;;;;;21.86;51.74;97147.75;5089201;28;20262;-70
2021/07/18 07:09:29;;;;;;;3.70;2.20;;;;;;;21.96;51.75;97149.03;5092029;28;20223;-71
2021/07/18 07:11:54;;;;;;;10.33;2.17;;;;;;;21.59;51.96;97161.41;5091019;28;20873;-70
2021/07/18 07:14:20;;;;;;;7.20;2.53;;;;;;;21.80;51.51;97153.97;5091361;28;20185;-71
2021/07/18 07:16:46;;;;;;;4.70;3.07;;;;;;;22.28;50.63;97151.47;5091366;28;20212;-71
2021/07/18 07:19:11;;;;;;;4.80;2.47;;;;;;;22.31;50.57;97165.16;5092488;28;20560;-69
2021/07/18 07:21:37;;;;;;;5.13;2.17;;;;;;;22.83;49.58;97167.22;5092549;28;20186;-70
2021/07/18 07:24:04;;;;;;;4.90;2.40;;;;;;;23.38;48.36;97161.72;5093204;28;20189;-72
2021/07/18 07:26:30;;;;;;;4.10;2.40;;;;;;;22.36;50.18;97159.13;5093485;28;20475;-70
2021/07/18 07:28:55;;;;;;;4.93;2.40;;;;;;;22.97;49.35;97166.97;5090825;28;20416;-71
2021/07/18 07:31:21;;;;;;;3.27;2.37;;;;;;;22.64;50.29;97158.50;5093868;28;20423;-71
2021/07/18 07:33:46;;;;;;;4.47;2.63;;;;;;;22.22;51.08;97156.66;5092726;28;20550;-71
2021/07/18 07:36:15;;;;;;;4.17;2.57;;;;;;;23.10;48.90;97165.94;5091173;28;20280;-71
2021/07/18 07:38:40;;;;;;;5.73;2.70;;;;;;;22.23;50.87;97163.63;5089552;28;20227;-71
2021/07/18 07:41:06;;;;;;;9.00;4.60;;;;;;;23.16;49.29;97162.31;5095562;28;20762;-71
2021/07/18 07:43:32;;;;;;;4.57;2.60;;;;;;;23.01;49.63;97166.28;5091781;28;20303;-72
2021/07/18 07:45:58;;;;;;;9.17;2.93;;;;;;;23.20;49.09;97160.84;5092022;28;20205;-72
2021/07/18 07:48:23;;;;;;;11.20;2.70;;;;;;;23.41;48.22;97154.06;5091197;28;20185;-70
2021/07/18 07:50:49;;;;;;;10.03;2.80;;;;;;;24.13;46.26;97156.50;5092934;28;20678;-70
2021/07/18 07:53:15;;;;;;;6.97;2.40;;;;;;;23.22;49.61;97163.28;5094954;28;20269;-71
2021/07/18 07:55:40;;;;;;;8.50;2.40;;;;;;;23.40;49.36;97165.81;5091099;28;20570;-71
2021/07/18 07:58:07;;;;;;;9.53;4.47;;;;;;;23.85;48.00;97158.09;5091234;28;20239;-73
2021/07/18 08:00:33;;;;;;;9.40;4.13;;;;;;;24.02;47.30;97160.84;5092302;28;20187;-71
2021/07/18 08:02:59;;;;;;;4.00;2.33;;;;;;;23.73;47.77;97161.63;5096891;28;20510;-74
2021/07/18 08:05:25;;;;;;;5.73;2.80;;;;;;;24.04;47.44;97156.88;5098514;28;20573;-72
2021/07/18 08:07:50;;;;;;;3.93;2.20;;;;;;;23.96;48.01;97159.13;5096371;28;20501;-71
2021/07/18 08:10:18;;;;;;;10.40;3.70;;;;;;;24.23;46.63;97157.50;5096205;28;20182;-70
2021/07/18 08:12:45;;;;;;;12.90;5.43;;;;;;;24.83;45.56;97149.88;5079486;28;20196;-71
2021/07/18 08:15:13;;;;;;;10.30;2.57;;;;;;;24.17;47.09;97149.59;5096521;28;20435;-70
2021/07/18 08:17:39;;;;;;;11.33;3.03;;;;;;;23.74;48.14;97152.56;5097250;28;20459;-70
2021/07/18 08:20:09;;;;;;;6.73;3.23;;;;;;;24.20;46.89;97151.78;5097229;28;20522;-71
2021/07/18 08:22:35;;;;;;;5.20;2.60;;;;;;;24.22;46.62;97144.31;5096155;28;21024;-70
2021/07/18 08:25:01;;;;;;;7.00;2.60;;;;;;;24.50;46.15;97135.44;5096788;28;20546;-69
2021/07/18 08:27:26;;;;;;;11.07;3.13;;;;;;;24.60;47.05;97142.00;5094881;28;20178;-72
2021/07/18 08:29:55;;;;;;;7.53;2.63;;;;;;;24.56;46.37;97141.69;5096314;28;20275;-72
2021/07/18 08:32:21;;;;;;;4.57;2.50;;;;;;;24.37;47.21;97151.81;5085696;28;20334;-70
2021/07/18 08:34:46;;;;;;;10.23;2.80;;;;;;;24.67;46.20;97140.78;5098275;28;20510;-71
2021/07/18 08:37:12;;;;;;;3.20;2.50;;;;;;;25.22;45.13;97145.56;5095378;28;20201;-70
2021/07/18 08:39:38;;;;;;;5.90;2.43;;;;;;;25.39;44.98;97148.19;5096798;28;20220;-70
2021/07/18 08:42:03;;;;;;;4.80;2.30;;;;;;;25.90;43.56;97142.59;5095622;28;20269;-71
2021/07/18 08:44:29;;;;;;;8.53;2.80;;;;;;;26.02;42.95;97143.25;5096746;28;20255;-71
2021/07/18 08:46:55;;;;;;;4.10;2.67;;;;;;;26.25;42.71;97148.59;5083767;28;20248;-70
2021/07/18 08:49:21;;;;;;;6.07;2.40;;;;;;;25.54;43.90;97140.38;5075263;28;20640;-70
2021/07/18 08:51:47;;;;;;;4.00;2.60;;;;;;;24.98;45.38;97151.97;5079153;28;20432;-69
2021/07/18 08:54:15;;;;;;;14.33;3.10;;;;;;;26.13;43.21;97144.22;5092484;28;20181;-70
2021/07/18 08:56:41;;;;;;;7.27;2.57;;;;;;;25.56;44.14;97142.78;5097205;28;20218;-68
2021/07/18 08:59:08;;;;;;;6.00;2.97;;;;;;;24.48;46.72;97152.78;5094191;28;20438;-71
2021/07/18 09:01:34;;;;;;;4.70;2.77;;;;;;;24.37;46.45;97143.78;5095368;28;20178;-70
2021/07/18 09:04:00;;;;;;;11.93;2.90;;;;;;;25.47;44.43;97137.03;5094884;28;20411;-70
2021/07/18 09:06:45;;;;;;;5.60;2.30;;;;;;;24.94;45.82;97144.66;5095007;28;20455;-70
2021/07/18 09:09:16;;;;;;;6.60;2.20;;;;;;;25.02;45.15;97144.22;5094119;28;20424;-70
2021/07/18 09:11:43;;;;;;;6.73;2.90;;;;;;;25.10;45.16;97143.00;5095378;28;20423;-70
2021/07/18 09:14:09;;;;;;;6.87;2.37;;;;;;;24.61;46.44;97141.75;5091141;28;20782;-70
2021/07/18 09:16:37;;;;;;;7.13;2.80;;;;;;;25.00;46.29;97138.31;5092227;28;20459;-70
2021/07/18 09:19:22;;;;;;;5.40;2.90;;;;;;;25.35;45.00;97129.13;5093824;28;20438;-69
2021/07/18 09:21:49;;;;;;;7.70;2.70;;;;;;;25.39;45.48;97134.78;5094272;28;20419;-70
2021/07/18 09:24:19;;;;;;;6.07;2.77;;;;;;;24.88;45.73;97134.94;5093725;28;20440;-70
2021/07/18 09:27:13;;;;;;;4.53;2.47;;;;;;;26.15;43.65;97127.88;5093742;28;20467;-71
2021/07/18 09:29:42;;;;;;;6.37;3.27;;;;;;;26.44;43.23;97124.84;5093958;28;20489;-73
2021/07/18 09:32:22;;;;;;;7.27;2.57;;;;;;;25.61;44.77;97132.13;5093531;28;20420;-70
2021/07/18 09:35:01;;;;;;;2.83;2.40;;;;;;;25.91;43.53;97120.91;5093142;28;20426;-70
2021/07/18 09:37:32;;;;;;;5.03;3.40;;;;;;;25.24;45.56;97125.50;5074021;28;21064;-69
2021/07/18 09:40:06;;;;;;;18.37;6.10;;;;;;;26.12;44.04;97123.78;5093457;28;20428;-71
2021/07/18 09:42:45;;;;;;;4.70;2.83;;;;;;;26.34;43.16;97115.66;5093817;28;20433;-70
2021/07/18 09:45:11;;;;;;;7.63;2.67;;;;;;;26.62;43.03;97113.72;5093071;28;20900;-70
2021/07/18 09:48:06;;;;;;;3.57;2.77;;;;;;;25.63;45.80;97115.78;5058707;28;20463;-69
2021/07/18 09:50:32;;;;;;;3.00;2.77;;;;;;;25.70;44.66;97116.41;5092688;28;20930;-71
2021/07/18 09:53:09;;;;;;;6.47;2.40;;;;;;;26.15;43.57;97112.56;5093368;28;20481;-70
2021/07/18 09:55:35;;;;;;;9.10;2.70;;;;;;;25.71;45.07;97116.13;5092785;28;20215;-70
2021/07/18 09:58:01;;;;;;;4.80;2.67;;;;;;;25.87;44.11;97114.41;5091972;28;20427;-69
2021/07/18 10:00:41;;;;;;;12.43;2.90;;;;;;;26.03;44.20;97106.50;5093382;28;20428;-70
2021/07/18 10:03:11;;;;;;;9.47;2.57;;;;;;;25.38;45.31;97111.72;5091874;28;20680;-71
2021/07/18 10:05:36;;;;;;;7.33;2.53;;;;;;;25.50;45.42;97103.56;5091884;28;20451;-69
2021/07/18 10:08:10;;;;;;;7.70;2.73;;;;;;;25.65;43.88;97105.59;5091528;28;20782;-69
2021/07/18 10:10:37;;;;;;;4.00;2.47;;;;;;;26.72;42.29;97101.41;5092228;28;20181;-73
2021/07/18 10:13:04;;;;;;;10.97;2.90;;;;;;;26.21;43.30;97098.09;5075082;28;20422;-69
2021/07/18 10:15:30;;;;;;;9.70;2.70;;;;;;;25.65;44.30;97102.91;5093222;28;21005;-70
2021/07/18 10:17:56;;;;;;;7.17;2.80;;;;;;;26.20;43.34;97101.03;5093246;28;20434;-71
2021/07/18 10:20:26;;;;;;;2.80;2.10;;;;;;;26.27;43.00;97092.78;5092495;28;20420;-70
2021/07/18 10:22:55;;;;;;;7.37;2.87;;;;;;;26.89;42.43;97099.41;5093137;28;20432;-69
2021/07/18 10:25:24;;;;;;;8.10;2.60;;;;;;;27.03;42.26;97096.25;5090642;28;20458;-71
2021/07/18 10:27:54;;;;;;;4.43;2.30;;;;;;;27.41;41.07;97097.75;5097662;28;20418;-69
2021/07/18 10:30:20;;;;;;;4.13;2.63;;;;;;;26.39;41.74;97104.16;5092090;28;20428;-70
2021/07/18 10:32:48;;;;;;;6.73;2.30;;;;;;;26.34;42.61;97096.88;5090884;28;20914;-70
2021/07/18 10:35:14;;;;;;;6.37;2.70;;;;;;;27.31;41.53;97102.25;5090640;28;20440;-70
2021/07/18 10:37:40;;;;;;;7.17;2.40;;;;;;;26.27;43.87;97101.66;5090003;28;20463;-70
2021/07/18 10:40:14;;;;;;;7.60;2.60;;;;;;;25.73;44.60;97097.09;5091728;28;20243;-70
2021/07/18 10:42:40;;;;;;;4.63;2.50;;;;;;;25.65;44.12;97094.88;5092281;28;20456;-71
2021/07/18 10:45:26;;;;;;;5.43;2.63;;;;;;;26.27;42.96;97100.81;5092002;28;20958;-70
2021/07/18 10:47:57;;;;;;;7.13;2.90;;;;;;;26.24;42.15;97082.53;5094662;28;21228;-70
2021/07/18 10:50:42;;;;;;;3.23;2.80;;;;;;;25.71;44.24;97089.31;5094459;28;20420;-70
2021/07/18 10:53:35;;;;;;;4.87;2.50;;;;;;;25.74;44.67;97088.81;5094202;28;20431;-70
2021/07/18 10:56:01;;;;;;;7.90;2.60;;;;;;;25.94;43.48;97091.94;5091417;28;20468;-72
2021/07/18 10:58:39;;;;;;;5.17;2.43;;;;;;;26.49;42.62;97089.97;5091873;28;20835;-70
2021/07/18 11:01:10;;;;;;;5.83;2.60;;;;;;;27.46;40.43;97082.72;5091495;28;20427;-69
2021/07/18 11:03:40;;;;;;;4.60;2.40;;;;;;;26.49;42.44;97089.97;5091586;28;20427;-73
2021/07/18 11:06:27;;;;;;;6.40;2.50;;;;;;;26.92;41.06;97090.00;5091597;28;20535;-73
2021/07/18 11:09:19;;;;;;;10.03;2.50;;;;;;;26.20;42.19;97085.75;5090787;28;20449;-69
2021/07/18 11:11:46;;;;;;;3.73;2.40;;;;;;;26.99;40.77;97085.19;5092047;28;20415;-70
2021/07/18 11:14:31;;;;;;;5.00;2.70;;;;;;;26.80;40.92;97082.94;5093180;28;20492;-69
2021/07/18 11:17:08;;;;;;;7.03;2.37;;;;;;;26.72;41.20;97096.84;5091572;28;20456;-69
2021/07/18 11:19:39;;;;;;;5.83;2.50;;;;;;;27.05;40.22;97077.94;5086216;28;20848;-74
2021/07/18 11:22:13;;;;;;;7.73;2.90;;;;;;;27.03;40.92;97094.34;5091769;28;20435;-73
2021/07/18 11:24:52;;;;;;;4.50;2.60;;;;;;;27.08;40.69;97089.00;5092499;28;20467;-69
2021/07/18 11:27:45;;;;;;;4.47;2.33;;;;;;;27.87;39.20;97072.84;5074734;28;21101;-69
2021/07/18 11:30:39;;;;;;;3.40;2.30;;;;;;;27.41;39.09;97080.78;5092395;28;20416;-70